<?xml version="1.0" encoding="UTF-8" standalone="no" ?>
<gpx xmlns="http://www.topografix.com/GPX/1/1" xmlns:xsi="http://www.w3.org/2001/XMLSchema-instance" xsi:schemaLocation="http://www.topografix.com/GPX/1/1 http://www.topografix.com/GPX/1/1/gpx.xsd" version="1.1" creator="VisuGPX - https://www.visugpx.com">
  <metadata>
    <name>Bon-Encontre - Le Golf </name>
  </metadata>
  <trk>
    <name><![CDATA[Randonnée du 23/10/2022 à 14:08]]></name>
    <extensions>
      <line xmlns="http://www.topografix.com/GPX/gpx_style/0/2">
        <color>0000FF</color>
        <width>4</width>
      </line>
    </extensions>
    <trkseg>
      <trkpt lat="44.18613" lon="0.66879">
        <ele>59.7</ele>
        <time>2022-10-23T14:08:59+02:00</time>
      </trkpt>
      <trkpt lat="44.18637" lon="0.66869">
        <ele>60.9</ele>
        <time>2022-10-23T14:09:00+02:00</time>
      </trkpt>
      <trkpt lat="44.1863" lon="0.66886">
        <ele>60.7</ele>
        <time>2022-10-23T14:09:35+02:00</time>
      </trkpt>
      <trkpt lat="44.18621" lon="0.66901">
        <ele>60.4</ele>
        <time>2022-10-23T14:09:54+02:00</time>
      </trkpt>
      <trkpt lat="44.18608" lon="0.66907">
        <ele>59.9</ele>
        <time>2022-10-23T14:10:17+02:00</time>
      </trkpt>
      <trkpt lat="44.18601" lon="0.66923">
        <ele>59.6</ele>
        <time>2022-10-23T14:10:30+02:00</time>
      </trkpt>
      <trkpt lat="44.18597" lon="0.66942">
        <ele>59.5</ele>
        <time>2022-10-23T14:10:46+02:00</time>
      </trkpt>
      <trkpt lat="44.18594" lon="0.66962">
        <ele>59.2</ele>
        <time>2022-10-23T14:11:00+02:00</time>
      </trkpt>
      <trkpt lat="44.18595" lon="0.66981">
        <ele>59</ele>
        <time>2022-10-23T14:11:16+02:00</time>
      </trkpt>
      <trkpt lat="44.18596" lon="0.67002">
        <ele>59</ele>
        <time>2022-10-23T14:11:28+02:00</time>
      </trkpt>
      <trkpt lat="44.18592" lon="0.6702">
        <ele>59</ele>
        <time>2022-10-23T14:12:09+02:00</time>
      </trkpt>
      <trkpt lat="44.18593" lon="0.6704">
        <ele>59</ele>
        <time>2022-10-23T14:12:25+02:00</time>
      </trkpt>
      <trkpt lat="44.18597" lon="0.67058">
        <ele>59</ele>
        <time>2022-10-23T14:12:38+02:00</time>
      </trkpt>
      <trkpt lat="44.18598" lon="0.67077">
        <ele>59.4</ele>
        <time>2022-10-23T14:12:47+02:00</time>
      </trkpt>
      <trkpt lat="44.18602" lon="0.67095">
        <ele>59.7</ele>
        <time>2022-10-23T14:12:58+02:00</time>
      </trkpt>
      <trkpt lat="44.18603" lon="0.67115">
        <ele>59.7</ele>
        <time>2022-10-23T14:13:08+02:00</time>
      </trkpt>
      <trkpt lat="44.18603" lon="0.67134">
        <ele>59.7</ele>
        <time>2022-10-23T14:13:18+02:00</time>
      </trkpt>
      <trkpt lat="44.18605" lon="0.67154">
        <ele>59.8</ele>
        <time>2022-10-23T14:13:27+02:00</time>
      </trkpt>
      <trkpt lat="44.18605" lon="0.67173">
        <ele>59.7</ele>
        <time>2022-10-23T14:13:36+02:00</time>
      </trkpt>
      <trkpt lat="44.18606" lon="0.67193">
        <ele>59.7</ele>
        <time>2022-10-23T14:13:47+02:00</time>
      </trkpt>
      <trkpt lat="44.18611" lon="0.67213">
        <ele>59.3</ele>
        <time>2022-10-23T14:14:00+02:00</time>
      </trkpt>
      <trkpt lat="44.18613" lon="0.67232">
        <ele>59.1</ele>
        <time>2022-10-23T14:14:14+02:00</time>
      </trkpt>
      <trkpt lat="44.18616" lon="0.67252">
        <ele>59.2</ele>
        <time>2022-10-23T14:14:27+02:00</time>
      </trkpt>
      <trkpt lat="44.18616" lon="0.67271">
        <ele>59.2</ele>
        <time>2022-10-23T14:14:38+02:00</time>
      </trkpt>
      <trkpt lat="44.18616" lon="0.67291">
        <ele>59.2</ele>
        <time>2022-10-23T14:14:47+02:00</time>
      </trkpt>
      <trkpt lat="44.18619" lon="0.67311">
        <ele>59.3</ele>
        <time>2022-10-23T14:14:57+02:00</time>
      </trkpt>
      <trkpt lat="44.18622" lon="0.67329">
        <ele>59.4</ele>
        <time>2022-10-23T14:15:10+02:00</time>
      </trkpt>
      <trkpt lat="44.18626" lon="0.67348">
        <ele>59.5</ele>
        <time>2022-10-23T14:15:23+02:00</time>
      </trkpt>
      <trkpt lat="44.18629" lon="0.67368">
        <ele>59.8</ele>
        <time>2022-10-23T14:15:38+02:00</time>
      </trkpt>
      <trkpt lat="44.18635" lon="0.67385">
        <ele>60.6</ele>
        <time>2022-10-23T14:15:51+02:00</time>
      </trkpt>
      <trkpt lat="44.18636" lon="0.67404">
        <ele>60.8</ele>
        <time>2022-10-23T14:16:04+02:00</time>
      </trkpt>
      <trkpt lat="44.18637" lon="0.67442">
        <ele>60.8</ele>
        <time>2022-10-23T14:16:27+02:00</time>
      </trkpt>
      <trkpt lat="44.18638" lon="0.67462">
        <ele>60.9</ele>
        <time>2022-10-23T14:16:39+02:00</time>
      </trkpt>
      <trkpt lat="44.18639" lon="0.67482">
        <ele>60.7</ele>
        <time>2022-10-23T14:16:50+02:00</time>
      </trkpt>
      <trkpt lat="44.18642" lon="0.675">
        <ele>60.2</ele>
        <time>2022-10-23T14:17:02+02:00</time>
      </trkpt>
      <trkpt lat="44.18644" lon="0.6752">
        <ele>60.3</ele>
        <time>2022-10-23T14:17:14+02:00</time>
      </trkpt>
      <trkpt lat="44.18652" lon="0.67536">
        <ele>60.9</ele>
        <time>2022-10-23T14:17:24+02:00</time>
      </trkpt>
      <trkpt lat="44.18658" lon="0.67553">
        <ele>61.3</ele>
        <time>2022-10-23T14:17:35+02:00</time>
      </trkpt>
      <trkpt lat="44.18663" lon="0.67571">
        <ele>61.3</ele>
        <time>2022-10-23T14:17:47+02:00</time>
      </trkpt>
      <trkpt lat="44.18668" lon="0.67589">
        <ele>61.1</ele>
        <time>2022-10-23T14:17:57+02:00</time>
      </trkpt>
      <trkpt lat="44.18667" lon="0.67609">
        <ele>61</ele>
        <time>2022-10-23T14:18:09+02:00</time>
      </trkpt>
      <trkpt lat="44.18664" lon="0.67628">
        <ele>60.8</ele>
        <time>2022-10-23T14:18:20+02:00</time>
      </trkpt>
      <trkpt lat="44.1866" lon="0.67646">
        <ele>60.7</ele>
        <time>2022-10-23T14:18:34+02:00</time>
      </trkpt>
      <trkpt lat="44.18661" lon="0.67666">
        <ele>60.6</ele>
        <time>2022-10-23T14:18:45+02:00</time>
      </trkpt>
      <trkpt lat="44.18668" lon="0.67683">
        <ele>60.5</ele>
        <time>2022-10-23T14:18:57+02:00</time>
      </trkpt>
      <trkpt lat="44.18672" lon="0.67702">
        <ele>60.3</ele>
        <time>2022-10-23T14:19:08+02:00</time>
      </trkpt>
      <trkpt lat="44.18676" lon="0.6772">
        <ele>60.4</ele>
        <time>2022-10-23T14:19:20+02:00</time>
      </trkpt>
      <trkpt lat="44.18681" lon="0.67738">
        <ele>60.5</ele>
        <time>2022-10-23T14:19:33+02:00</time>
      </trkpt>
      <trkpt lat="44.18685" lon="0.67757">
        <ele>60.6</ele>
        <time>2022-10-23T14:19:44+02:00</time>
      </trkpt>
      <trkpt lat="44.18684" lon="0.67779">
        <ele>60.2</ele>
        <time>2022-10-23T14:19:55+02:00</time>
      </trkpt>
      <trkpt lat="44.18686" lon="0.67798">
        <ele>60.6</ele>
        <time>2022-10-23T14:20:09+02:00</time>
      </trkpt>
      <trkpt lat="44.18692" lon="0.67816">
        <ele>60.9</ele>
        <time>2022-10-23T14:20:25+02:00</time>
      </trkpt>
      <trkpt lat="44.18694" lon="0.67836">
        <ele>60.9</ele>
        <time>2022-10-23T14:20:39+02:00</time>
      </trkpt>
      <trkpt lat="44.18697" lon="0.67856">
        <ele>60.3</ele>
        <time>2022-10-23T14:20:52+02:00</time>
      </trkpt>
      <trkpt lat="44.187" lon="0.67875">
        <ele>60.2</ele>
        <time>2022-10-23T14:21:06+02:00</time>
      </trkpt>
      <trkpt lat="44.18701" lon="0.67895">
        <ele>60.2</ele>
        <time>2022-10-23T14:21:19+02:00</time>
      </trkpt>
      <trkpt lat="44.18696" lon="0.67913">
        <ele>60.1</ele>
        <time>2022-10-23T14:21:31+02:00</time>
      </trkpt>
      <trkpt lat="44.18698" lon="0.67933">
        <ele>60.1</ele>
        <time>2022-10-23T14:21:42+02:00</time>
      </trkpt>
      <trkpt lat="44.18699" lon="0.67954">
        <ele>60.1</ele>
        <time>2022-10-23T14:21:53+02:00</time>
      </trkpt>
      <trkpt lat="44.18706" lon="0.67972">
        <ele>60.4</ele>
        <time>2022-10-23T14:22:03+02:00</time>
      </trkpt>
      <trkpt lat="44.18705" lon="0.67991">
        <ele>60.4</ele>
        <time>2022-10-23T14:22:15+02:00</time>
      </trkpt>
      <trkpt lat="44.18701" lon="0.68011">
        <ele>60.3</ele>
        <time>2022-10-23T14:22:27+02:00</time>
      </trkpt>
      <trkpt lat="44.18702" lon="0.68031">
        <ele>60.3</ele>
        <time>2022-10-23T14:22:38+02:00</time>
      </trkpt>
      <trkpt lat="44.18705" lon="0.6805">
        <ele>60.4</ele>
        <time>2022-10-23T14:22:51+02:00</time>
      </trkpt>
      <trkpt lat="44.18712" lon="0.68067">
        <ele>60.6</ele>
        <time>2022-10-23T14:23:01+02:00</time>
      </trkpt>
      <trkpt lat="44.1871" lon="0.68088">
        <ele>60.6</ele>
        <time>2022-10-23T14:23:13+02:00</time>
      </trkpt>
      <trkpt lat="44.18706" lon="0.68106">
        <ele>60.9</ele>
        <time>2022-10-23T14:23:23+02:00</time>
      </trkpt>
      <trkpt lat="44.18709" lon="0.68126">
        <ele>61</ele>
        <time>2022-10-23T14:23:33+02:00</time>
      </trkpt>
      <trkpt lat="44.18712" lon="0.68144">
        <ele>61</ele>
        <time>2022-10-23T14:23:42+02:00</time>
      </trkpt>
      <trkpt lat="44.18714" lon="0.68163">
        <ele>61.3</ele>
        <time>2022-10-23T14:23:52+02:00</time>
      </trkpt>
      <trkpt lat="44.18714" lon="0.68183">
        <ele>61.4</ele>
        <time>2022-10-23T14:24:03+02:00</time>
      </trkpt>
      <trkpt lat="44.18718" lon="0.68202">
        <ele>61.5</ele>
        <time>2022-10-23T14:24:13+02:00</time>
      </trkpt>
      <trkpt lat="44.18717" lon="0.68223">
        <ele>61</ele>
        <time>2022-10-23T14:24:26+02:00</time>
      </trkpt>
      <trkpt lat="44.18722" lon="0.68241">
        <ele>61.7</ele>
        <time>2022-10-23T14:24:37+02:00</time>
      </trkpt>
      <trkpt lat="44.18735" lon="0.68251">
        <ele>62</ele>
        <time>2022-10-23T14:24:48+02:00</time>
      </trkpt>
      <trkpt lat="44.18749" lon="0.68248">
        <ele>62</ele>
        <time>2022-10-23T14:24:57+02:00</time>
      </trkpt>
      <trkpt lat="44.18763" lon="0.68242">
        <ele>62</ele>
        <time>2022-10-23T14:25:08+02:00</time>
      </trkpt>
      <trkpt lat="44.18776" lon="0.68232">
        <ele>62</ele>
        <time>2022-10-23T14:25:20+02:00</time>
      </trkpt>
      <trkpt lat="44.1879" lon="0.68227">
        <ele>62</ele>
        <time>2022-10-23T14:25:32+02:00</time>
      </trkpt>
      <trkpt lat="44.18804" lon="0.68221">
        <ele>62</ele>
        <time>2022-10-23T14:25:41+02:00</time>
      </trkpt>
      <trkpt lat="44.18817" lon="0.68215">
        <ele>62.8</ele>
        <time>2022-10-23T14:25:51+02:00</time>
      </trkpt>
      <trkpt lat="44.18829" lon="0.68207">
        <ele>63.3</ele>
        <time>2022-10-23T14:26:03+02:00</time>
      </trkpt>
      <trkpt lat="44.1884" lon="0.68196">
        <ele>63.3</ele>
        <time>2022-10-23T14:26:12+02:00</time>
      </trkpt>
      <trkpt lat="44.18853" lon="0.68188">
        <ele>63.7</ele>
        <time>2022-10-23T14:26:21+02:00</time>
      </trkpt>
      <trkpt lat="44.18867" lon="0.6818">
        <ele>64.1</ele>
        <time>2022-10-23T14:26:31+02:00</time>
      </trkpt>
      <trkpt lat="44.18878" lon="0.6817">
        <ele>64.1</ele>
        <time>2022-10-23T14:26:43+02:00</time>
      </trkpt>
      <trkpt lat="44.18891" lon="0.68162">
        <ele>64.3</ele>
        <time>2022-10-23T14:27:15+02:00</time>
      </trkpt>
      <trkpt lat="44.18904" lon="0.68152">
        <ele>65.1</ele>
        <time>2022-10-23T14:27:28+02:00</time>
      </trkpt>
      <trkpt lat="44.18917" lon="0.68144">
        <ele>65.8</ele>
        <time>2022-10-23T14:27:39+02:00</time>
      </trkpt>
      <trkpt lat="44.18929" lon="0.68135">
        <ele>66.4</ele>
        <time>2022-10-23T14:27:50+02:00</time>
      </trkpt>
      <trkpt lat="44.18942" lon="0.68126">
        <ele>66.5</ele>
        <time>2022-10-23T14:28:02+02:00</time>
      </trkpt>
      <trkpt lat="44.18955" lon="0.68117">
        <ele>66.5</ele>
        <time>2022-10-23T14:28:12+02:00</time>
      </trkpt>
      <trkpt lat="44.18967" lon="0.68106">
        <ele>66.8</ele>
        <time>2022-10-23T14:28:34+02:00</time>
      </trkpt>
      <trkpt lat="44.1898" lon="0.68099">
        <ele>67.3</ele>
        <time>2022-10-23T14:28:46+02:00</time>
      </trkpt>
      <trkpt lat="44.18993" lon="0.68089">
        <ele>67.7</ele>
        <time>2022-10-23T14:28:58+02:00</time>
      </trkpt>
      <trkpt lat="44.19005" lon="0.68082">
        <ele>68.5</ele>
        <time>2022-10-23T14:29:07+02:00</time>
      </trkpt>
      <trkpt lat="44.19018" lon="0.68074">
        <ele>69.8</ele>
        <time>2022-10-23T14:29:21+02:00</time>
      </trkpt>
      <trkpt lat="44.19031" lon="0.68065">
        <ele>71</ele>
        <time>2022-10-23T14:29:33+02:00</time>
      </trkpt>
      <trkpt lat="44.19042" lon="0.68054">
        <ele>72.7</ele>
        <time>2022-10-23T14:29:45+02:00</time>
      </trkpt>
      <trkpt lat="44.19055" lon="0.68048">
        <ele>74.6</ele>
        <time>2022-10-23T14:29:58+02:00</time>
      </trkpt>
      <trkpt lat="44.19067" lon="0.68038">
        <ele>77.6</ele>
        <time>2022-10-23T14:30:33+02:00</time>
      </trkpt>
      <trkpt lat="44.19081" lon="0.68041">
        <ele>80.1</ele>
        <time>2022-10-23T14:32:31+02:00</time>
      </trkpt>
      <trkpt lat="44.19088" lon="0.68059">
        <ele>79.4</ele>
        <time>2022-10-23T14:32:48+02:00</time>
      </trkpt>
      <trkpt lat="44.19093" lon="0.68077">
        <ele>79.1</ele>
        <time>2022-10-23T14:33:04+02:00</time>
      </trkpt>
      <trkpt lat="44.19098" lon="0.68095">
        <ele>79</ele>
        <time>2022-10-23T14:33:17+02:00</time>
      </trkpt>
      <trkpt lat="44.19103" lon="0.68114">
        <ele>79.4</ele>
        <time>2022-10-23T14:34:01+02:00</time>
      </trkpt>
      <trkpt lat="44.1911" lon="0.68132">
        <ele>80.2</ele>
        <time>2022-10-23T14:34:13+02:00</time>
      </trkpt>
      <trkpt lat="44.19117" lon="0.68149">
        <ele>80.3</ele>
        <time>2022-10-23T14:34:28+02:00</time>
      </trkpt>
      <trkpt lat="44.19123" lon="0.68167">
        <ele>80.5</ele>
        <time>2022-10-23T14:34:41+02:00</time>
      </trkpt>
      <trkpt lat="44.19133" lon="0.6818">
        <ele>81.5</ele>
        <time>2022-10-23T14:34:55+02:00</time>
      </trkpt>
      <trkpt lat="44.19144" lon="0.68191">
        <ele>82.1</ele>
        <time>2022-10-23T14:35:09+02:00</time>
      </trkpt>
      <trkpt lat="44.19158" lon="0.68197">
        <ele>82.6</ele>
        <time>2022-10-23T14:35:21+02:00</time>
      </trkpt>
      <trkpt lat="44.19172" lon="0.68201">
        <ele>82.1</ele>
        <time>2022-10-23T14:35:34+02:00</time>
      </trkpt>
      <trkpt lat="44.19186" lon="0.68203">
        <ele>80.6</ele>
        <time>2022-10-23T14:35:46+02:00</time>
      </trkpt>
      <trkpt lat="44.192" lon="0.68208">
        <ele>78.9</ele>
        <time>2022-10-23T14:35:57+02:00</time>
      </trkpt>
      <trkpt lat="44.1921" lon="0.68221">
        <ele>77.7</ele>
        <time>2022-10-23T14:36:07+02:00</time>
      </trkpt>
      <trkpt lat="44.1922" lon="0.68236">
        <ele>77.4</ele>
        <time>2022-10-23T14:36:21+02:00</time>
      </trkpt>
      <trkpt lat="44.19219" lon="0.68256">
        <ele>77.1</ele>
        <time>2022-10-23T14:36:32+02:00</time>
      </trkpt>
      <trkpt lat="44.19222" lon="0.68275">
        <ele>77.9</ele>
        <time>2022-10-23T14:36:44+02:00</time>
      </trkpt>
      <trkpt lat="44.19225" lon="0.68294">
        <ele>77.7</ele>
        <time>2022-10-23T14:36:57+02:00</time>
      </trkpt>
      <trkpt lat="44.19228" lon="0.68313">
        <ele>77.7</ele>
        <time>2022-10-23T14:37:09+02:00</time>
      </trkpt>
      <trkpt lat="44.19235" lon="0.6833">
        <ele>78.8</ele>
        <time>2022-10-23T14:37:21+02:00</time>
      </trkpt>
      <trkpt lat="44.19234" lon="0.6835">
        <ele>79.4</ele>
        <time>2022-10-23T14:37:31+02:00</time>
      </trkpt>
      <trkpt lat="44.19234" lon="0.6837">
        <ele>80.5</ele>
        <time>2022-10-23T14:37:44+02:00</time>
      </trkpt>
      <trkpt lat="44.19233" lon="0.68389">
        <ele>80.9</ele>
        <time>2022-10-23T14:37:57+02:00</time>
      </trkpt>
      <trkpt lat="44.1923" lon="0.68407">
        <ele>81</ele>
        <time>2022-10-23T14:38:09+02:00</time>
      </trkpt>
      <trkpt lat="44.19231" lon="0.68427">
        <ele>82</ele>
        <time>2022-10-23T14:38:23+02:00</time>
      </trkpt>
      <trkpt lat="44.19244" lon="0.68437">
        <ele>84.6</ele>
        <time>2022-10-23T14:38:43+02:00</time>
      </trkpt>
      <trkpt lat="44.19255" lon="0.68449">
        <ele>86.8</ele>
        <time>2022-10-23T14:40:16+02:00</time>
      </trkpt>
      <trkpt lat="44.19267" lon="0.68459">
        <ele>88.7</ele>
        <time>2022-10-23T14:40:28+02:00</time>
      </trkpt>
      <trkpt lat="44.19278" lon="0.68472">
        <ele>90.1</ele>
        <time>2022-10-23T14:40:40+02:00</time>
      </trkpt>
      <trkpt lat="44.1929" lon="0.68482">
        <ele>92.8</ele>
        <time>2022-10-23T14:40:50+02:00</time>
      </trkpt>
      <trkpt lat="44.19302" lon="0.68492">
        <ele>95.1</ele>
        <time>2022-10-23T14:41:01+02:00</time>
      </trkpt>
      <trkpt lat="44.19314" lon="0.68502">
        <ele>97.7</ele>
        <time>2022-10-23T14:41:12+02:00</time>
      </trkpt>
      <trkpt lat="44.19327" lon="0.68511">
        <ele>100.7</ele>
        <time>2022-10-23T14:41:24+02:00</time>
      </trkpt>
      <trkpt lat="44.1934" lon="0.68522">
        <ele>103.5</ele>
        <time>2022-10-23T14:41:37+02:00</time>
      </trkpt>
      <trkpt lat="44.19351" lon="0.68532">
        <ele>105.8</ele>
        <time>2022-10-23T14:41:49+02:00</time>
      </trkpt>
      <trkpt lat="44.19364" lon="0.68542">
        <ele>107.7</ele>
        <time>2022-10-23T14:42:01+02:00</time>
      </trkpt>
      <trkpt lat="44.19377" lon="0.6854">
        <ele>108.7</ele>
        <time>2022-10-23T14:46:41+02:00</time>
      </trkpt>
      <trkpt lat="44.19388" lon="0.68527">
        <ele>109.8</ele>
        <time>2022-10-23T14:46:56+02:00</time>
      </trkpt>
      <trkpt lat="44.19401" lon="0.68519">
        <ele>110</ele>
        <time>2022-10-23T14:47:06+02:00</time>
      </trkpt>
      <trkpt lat="44.19413" lon="0.6851">
        <ele>110.7</ele>
        <time>2022-10-23T14:47:17+02:00</time>
      </trkpt>
      <trkpt lat="44.19425" lon="0.685">
        <ele>111.6</ele>
        <time>2022-10-23T14:47:26+02:00</time>
      </trkpt>
      <trkpt lat="44.19437" lon="0.68488">
        <ele>111.9</ele>
        <time>2022-10-23T14:47:38+02:00</time>
      </trkpt>
      <trkpt lat="44.1945" lon="0.68477">
        <ele>112.8</ele>
        <time>2022-10-23T14:47:48+02:00</time>
      </trkpt>
      <trkpt lat="44.19462" lon="0.68466">
        <ele>114.1</ele>
        <time>2022-10-23T14:47:58+02:00</time>
      </trkpt>
      <trkpt lat="44.19474" lon="0.68457">
        <ele>115.1</ele>
        <time>2022-10-23T14:48:07+02:00</time>
      </trkpt>
      <trkpt lat="44.19486" lon="0.68448">
        <ele>116.4</ele>
        <time>2022-10-23T14:48:17+02:00</time>
      </trkpt>
      <trkpt lat="44.19498" lon="0.68437">
        <ele>118.6</ele>
        <time>2022-10-23T14:48:27+02:00</time>
      </trkpt>
      <trkpt lat="44.19509" lon="0.68425">
        <ele>120.1</ele>
        <time>2022-10-23T14:48:37+02:00</time>
      </trkpt>
      <trkpt lat="44.19521" lon="0.68416">
        <ele>122.1</ele>
        <time>2022-10-23T14:48:47+02:00</time>
      </trkpt>
      <trkpt lat="44.19533" lon="0.68406">
        <ele>124.4</ele>
        <time>2022-10-23T14:50:14+02:00</time>
      </trkpt>
      <trkpt lat="44.19545" lon="0.68395">
        <ele>126.9</ele>
        <time>2022-10-23T14:50:27+02:00</time>
      </trkpt>
      <trkpt lat="44.19555" lon="0.6838">
        <ele>129.6</ele>
        <time>2022-10-23T14:50:42+02:00</time>
      </trkpt>
      <trkpt lat="44.19567" lon="0.6837">
        <ele>131.3</ele>
        <time>2022-10-23T14:50:56+02:00</time>
      </trkpt>
      <trkpt lat="44.19579" lon="0.6836">
        <ele>133.7</ele>
        <time>2022-10-23T14:51:09+02:00</time>
      </trkpt>
      <trkpt lat="44.1959" lon="0.68348">
        <ele>136.7</ele>
        <time>2022-10-23T14:51:23+02:00</time>
      </trkpt>
      <trkpt lat="44.19602" lon="0.68338">
        <ele>139.4</ele>
        <time>2022-10-23T14:51:57+02:00</time>
      </trkpt>
      <trkpt lat="44.19613" lon="0.68327">
        <ele>141.9</ele>
        <time>2022-10-23T14:52:14+02:00</time>
      </trkpt>
      <trkpt lat="44.19626" lon="0.68318">
        <ele>142.8</ele>
        <time>2022-10-23T14:52:27+02:00</time>
      </trkpt>
      <trkpt lat="44.19639" lon="0.68309">
        <ele>144.2</ele>
        <time>2022-10-23T14:52:40+02:00</time>
      </trkpt>
      <trkpt lat="44.19653" lon="0.68304">
        <ele>144.6</ele>
        <time>2022-10-23T14:52:54+02:00</time>
      </trkpt>
      <trkpt lat="44.19665" lon="0.68297">
        <ele>145</ele>
        <time>2022-10-23T14:53:07+02:00</time>
      </trkpt>
      <trkpt lat="44.19676" lon="0.68285">
        <ele>146.2</ele>
        <time>2022-10-23T14:53:19+02:00</time>
      </trkpt>
      <trkpt lat="44.19689" lon="0.68295">
        <ele>145.1</ele>
        <time>2022-10-23T14:53:41+02:00</time>
      </trkpt>
      <trkpt lat="44.19703" lon="0.68298">
        <ele>145.2</ele>
        <time>2022-10-23T14:53:53+02:00</time>
      </trkpt>
      <trkpt lat="44.19717" lon="0.683">
        <ele>145.4</ele>
        <time>2022-10-23T14:54:05+02:00</time>
      </trkpt>
      <trkpt lat="44.1973" lon="0.68303">
        <ele>145.5</ele>
        <time>2022-10-23T14:54:18+02:00</time>
      </trkpt>
      <trkpt lat="44.19745" lon="0.68302">
        <ele>146.1</ele>
        <time>2022-10-23T14:54:28+02:00</time>
      </trkpt>
      <trkpt lat="44.19759" lon="0.68304">
        <ele>146.5</ele>
        <time>2022-10-23T14:54:41+02:00</time>
      </trkpt>
      <trkpt lat="44.19773" lon="0.68309">
        <ele>145.8</ele>
        <time>2022-10-23T14:54:52+02:00</time>
      </trkpt>
      <trkpt lat="44.19784" lon="0.6832">
        <ele>144.3</ele>
        <time>2022-10-23T14:55:04+02:00</time>
      </trkpt>
      <trkpt lat="44.19796" lon="0.68331">
        <ele>144.2</ele>
        <time>2022-10-23T14:55:15+02:00</time>
      </trkpt>
      <trkpt lat="44.19807" lon="0.68345">
        <ele>143.6</ele>
        <time>2022-10-23T14:55:30+02:00</time>
      </trkpt>
      <trkpt lat="44.19819" lon="0.68357">
        <ele>143.9</ele>
        <time>2022-10-23T14:55:42+02:00</time>
      </trkpt>
      <trkpt lat="44.19832" lon="0.68362">
        <ele>146.4</ele>
        <time>2022-10-23T14:55:57+02:00</time>
      </trkpt>
      <trkpt lat="44.19842" lon="0.68376">
        <ele>144.6</ele>
        <time>2022-10-23T14:56:09+02:00</time>
      </trkpt>
      <trkpt lat="44.19852" lon="0.68388">
        <ele>144.8</ele>
        <time>2022-10-23T14:56:20+02:00</time>
      </trkpt>
      <trkpt lat="44.19863" lon="0.68401">
        <ele>145.9</ele>
        <time>2022-10-23T14:56:34+02:00</time>
      </trkpt>
      <trkpt lat="44.19875" lon="0.68412">
        <ele>146.4</ele>
        <time>2022-10-23T14:56:48+02:00</time>
      </trkpt>
      <trkpt lat="44.19887" lon="0.68421">
        <ele>146</ele>
        <time>2022-10-23T14:57:00+02:00</time>
      </trkpt>
      <trkpt lat="44.199" lon="0.68428">
        <ele>146</ele>
        <time>2022-10-23T14:57:16+02:00</time>
      </trkpt>
      <trkpt lat="44.19913" lon="0.68436">
        <ele>147.6</ele>
        <time>2022-10-23T14:57:28+02:00</time>
      </trkpt>
      <trkpt lat="44.19925" lon="0.68446">
        <ele>149.2</ele>
        <time>2022-10-23T14:57:43+02:00</time>
      </trkpt>
      <trkpt lat="44.19938" lon="0.68456">
        <ele>150.7</ele>
        <time>2022-10-23T14:57:57+02:00</time>
      </trkpt>
      <trkpt lat="44.1995" lon="0.68467">
        <ele>153.1</ele>
        <time>2022-10-23T14:58:11+02:00</time>
      </trkpt>
      <trkpt lat="44.19962" lon="0.68477">
        <ele>154.2</ele>
        <time>2022-10-23T15:01:33+02:00</time>
      </trkpt>
      <trkpt lat="44.19968" lon="0.68496">
        <ele>154.2</ele>
        <time>2022-10-23T15:02:23+02:00</time>
      </trkpt>
      <trkpt lat="44.19974" lon="0.68514">
        <ele>154.7</ele>
        <time>2022-10-23T15:02:45+02:00</time>
      </trkpt>
      <trkpt lat="44.19976" lon="0.68533">
        <ele>154.2</ele>
        <time>2022-10-23T15:03:22+02:00</time>
      </trkpt>
      <trkpt lat="44.1998" lon="0.68552">
        <ele>153.4</ele>
        <time>2022-10-23T15:03:33+02:00</time>
      </trkpt>
      <trkpt lat="44.19983" lon="0.6857">
        <ele>152.3</ele>
        <time>2022-10-23T15:03:44+02:00</time>
      </trkpt>
      <trkpt lat="44.19988" lon="0.6859">
        <ele>152.4</ele>
        <time>2022-10-23T15:03:55+02:00</time>
      </trkpt>
      <trkpt lat="44.19992" lon="0.68608">
        <ele>153.5</ele>
        <time>2022-10-23T15:04:04+02:00</time>
      </trkpt>
      <trkpt lat="44.19997" lon="0.68626">
        <ele>154.7</ele>
        <time>2022-10-23T15:04:14+02:00</time>
      </trkpt>
      <trkpt lat="44.20004" lon="0.68644">
        <ele>155.3</ele>
        <time>2022-10-23T15:04:24+02:00</time>
      </trkpt>
      <trkpt lat="44.2001" lon="0.68661">
        <ele>155.7</ele>
        <time>2022-10-23T15:04:35+02:00</time>
      </trkpt>
      <trkpt lat="44.20016" lon="0.68679">
        <ele>156.4</ele>
        <time>2022-10-23T15:04:47+02:00</time>
      </trkpt>
      <trkpt lat="44.20024" lon="0.68696">
        <ele>157.5</ele>
        <time>2022-10-23T15:04:58+02:00</time>
      </trkpt>
      <trkpt lat="44.20037" lon="0.68688">
        <ele>158.2</ele>
        <time>2022-10-23T15:05:32+02:00</time>
      </trkpt>
      <trkpt lat="44.2005" lon="0.68678">
        <ele>158.7</ele>
        <time>2022-10-23T15:05:42+02:00</time>
      </trkpt>
      <trkpt lat="44.20062" lon="0.68668">
        <ele>159</ele>
        <time>2022-10-23T15:05:53+02:00</time>
      </trkpt>
      <trkpt lat="44.20074" lon="0.68659">
        <ele>159.4</ele>
        <time>2022-10-23T15:06:08+02:00</time>
      </trkpt>
      <trkpt lat="44.20085" lon="0.68647">
        <ele>160.3</ele>
        <time>2022-10-23T15:06:20+02:00</time>
      </trkpt>
      <trkpt lat="44.20098" lon="0.68638">
        <ele>160</ele>
        <time>2022-10-23T15:06:31+02:00</time>
      </trkpt>
      <trkpt lat="44.20111" lon="0.68629">
        <ele>159.4</ele>
        <time>2022-10-23T15:06:47+02:00</time>
      </trkpt>
      <trkpt lat="44.20123" lon="0.68621">
        <ele>158.5</ele>
        <time>2022-10-23T15:06:59+02:00</time>
      </trkpt>
      <trkpt lat="44.20138" lon="0.68623">
        <ele>157.1</ele>
        <time>2022-10-23T15:07:14+02:00</time>
      </trkpt>
      <trkpt lat="44.20152" lon="0.68616">
        <ele>156.5</ele>
        <time>2022-10-23T15:07:23+02:00</time>
      </trkpt>
      <trkpt lat="44.20163" lon="0.68605">
        <ele>156.1</ele>
        <time>2022-10-23T15:07:32+02:00</time>
      </trkpt>
      <trkpt lat="44.20177" lon="0.68598">
        <ele>155.6</ele>
        <time>2022-10-23T15:07:44+02:00</time>
      </trkpt>
      <trkpt lat="44.20188" lon="0.68586">
        <ele>155.2</ele>
        <time>2022-10-23T15:09:13+02:00</time>
      </trkpt>
      <trkpt lat="44.202" lon="0.68574">
        <ele>154.6</ele>
        <time>2022-10-23T15:09:25+02:00</time>
      </trkpt>
      <trkpt lat="44.20208" lon="0.68559">
        <ele>154</ele>
        <time>2022-10-23T15:09:36+02:00</time>
      </trkpt>
      <trkpt lat="44.20218" lon="0.68545">
        <ele>153</ele>
        <time>2022-10-23T15:09:45+02:00</time>
      </trkpt>
      <trkpt lat="44.20227" lon="0.68529">
        <ele>152.3</ele>
        <time>2022-10-23T15:09:56+02:00</time>
      </trkpt>
      <trkpt lat="44.20237" lon="0.68514">
        <ele>152.4</ele>
        <time>2022-10-23T15:10:05+02:00</time>
      </trkpt>
      <trkpt lat="44.20247" lon="0.68501">
        <ele>152.4</ele>
        <time>2022-10-23T15:10:13+02:00</time>
      </trkpt>
      <trkpt lat="44.20254" lon="0.68484">
        <ele>151.7</ele>
        <time>2022-10-23T15:10:23+02:00</time>
      </trkpt>
      <trkpt lat="44.20259" lon="0.68465">
        <ele>152</ele>
        <time>2022-10-23T15:10:33+02:00</time>
      </trkpt>
      <trkpt lat="44.20264" lon="0.68447">
        <ele>152.6</ele>
        <time>2022-10-23T15:10:43+02:00</time>
      </trkpt>
      <trkpt lat="44.20276" lon="0.68436">
        <ele>151.3</ele>
        <time>2022-10-23T15:10:55+02:00</time>
      </trkpt>
      <trkpt lat="44.2029" lon="0.68427">
        <ele>150.5</ele>
        <time>2022-10-23T15:11:08+02:00</time>
      </trkpt>
      <trkpt lat="44.20304" lon="0.68429">
        <ele>148.5</ele>
        <time>2022-10-23T15:11:21+02:00</time>
      </trkpt>
      <trkpt lat="44.20317" lon="0.68437">
        <ele>148.8</ele>
        <time>2022-10-23T15:11:31+02:00</time>
      </trkpt>
      <trkpt lat="44.2033" lon="0.68448">
        <ele>149.3</ele>
        <time>2022-10-23T15:11:39+02:00</time>
      </trkpt>
      <trkpt lat="44.20341" lon="0.68461">
        <ele>148</ele>
        <time>2022-10-23T15:11:48+02:00</time>
      </trkpt>
      <trkpt lat="44.20352" lon="0.68473">
        <ele>148.3</ele>
        <time>2022-10-23T15:11:56+02:00</time>
      </trkpt>
      <trkpt lat="44.20363" lon="0.68486">
        <ele>149.7</ele>
        <time>2022-10-23T15:12:06+02:00</time>
      </trkpt>
      <trkpt lat="44.20373" lon="0.68498">
        <ele>149.1</ele>
        <time>2022-10-23T15:12:20+02:00</time>
      </trkpt>
      <trkpt lat="44.20384" lon="0.68511">
        <ele>148.1</ele>
        <time>2022-10-23T15:12:33+02:00</time>
      </trkpt>
      <trkpt lat="44.20396" lon="0.68521">
        <ele>148.4</ele>
        <time>2022-10-23T15:12:48+02:00</time>
      </trkpt>
      <trkpt lat="44.20408" lon="0.68532">
        <ele>148.5</ele>
        <time>2022-10-23T15:12:59+02:00</time>
      </trkpt>
      <trkpt lat="44.2042" lon="0.68541">
        <ele>149.2</ele>
        <time>2022-10-23T15:13:10+02:00</time>
      </trkpt>
      <trkpt lat="44.20432" lon="0.68549">
        <ele>149.1</ele>
        <time>2022-10-23T15:13:24+02:00</time>
      </trkpt>
      <trkpt lat="44.20443" lon="0.68561">
        <ele>148.7</ele>
        <time>2022-10-23T15:13:37+02:00</time>
      </trkpt>
      <trkpt lat="44.20454" lon="0.68575">
        <ele>149.3</ele>
        <time>2022-10-23T15:13:47+02:00</time>
      </trkpt>
      <trkpt lat="44.20463" lon="0.68589">
        <ele>149.9</ele>
        <time>2022-10-23T15:13:56+02:00</time>
      </trkpt>
      <trkpt lat="44.20471" lon="0.68605">
        <ele>150.1</ele>
        <time>2022-10-23T15:14:08+02:00</time>
      </trkpt>
      <trkpt lat="44.20477" lon="0.68623">
        <ele>149.2</ele>
        <time>2022-10-23T15:15:02+02:00</time>
      </trkpt>
      <trkpt lat="44.20486" lon="0.68637">
        <ele>149.1</ele>
        <time>2022-10-23T15:15:41+02:00</time>
      </trkpt>
      <trkpt lat="44.20499" lon="0.6865">
        <ele>149.2</ele>
        <time>2022-10-23T15:15:53+02:00</time>
      </trkpt>
      <trkpt lat="44.20512" lon="0.6866">
        <ele>149</ele>
        <time>2022-10-23T15:16:03+02:00</time>
      </trkpt>
      <trkpt lat="44.20523" lon="0.68672">
        <ele>148.4</ele>
        <time>2022-10-23T15:16:20+02:00</time>
      </trkpt>
      <trkpt lat="44.20535" lon="0.68678">
        <ele>148.6</ele>
        <time>2022-10-23T15:16:31+02:00</time>
      </trkpt>
      <trkpt lat="44.20548" lon="0.68685">
        <ele>148.9</ele>
        <time>2022-10-23T15:16:42+02:00</time>
      </trkpt>
      <trkpt lat="44.20561" lon="0.68693">
        <ele>149.6</ele>
        <time>2022-10-23T15:17:07+02:00</time>
      </trkpt>
      <trkpt lat="44.20573" lon="0.68704">
        <ele>150.2</ele>
        <time>2022-10-23T15:17:44+02:00</time>
      </trkpt>
      <trkpt lat="44.20587" lon="0.68711">
        <ele>152.4</ele>
        <time>2022-10-23T15:18:00+02:00</time>
      </trkpt>
      <trkpt lat="44.20598" lon="0.68721">
        <ele>153.6</ele>
        <time>2022-10-23T15:18:19+02:00</time>
      </trkpt>
      <trkpt lat="44.2061" lon="0.68731">
        <ele>155.2</ele>
        <time>2022-10-23T15:18:32+02:00</time>
      </trkpt>
      <trkpt lat="44.20624" lon="0.68739">
        <ele>156.9</ele>
        <time>2022-10-23T15:18:47+02:00</time>
      </trkpt>
      <trkpt lat="44.20636" lon="0.68749">
        <ele>157.8</ele>
        <time>2022-10-23T15:18:57+02:00</time>
      </trkpt>
      <trkpt lat="44.20648" lon="0.68759">
        <ele>158.2</ele>
        <time>2022-10-23T15:19:09+02:00</time>
      </trkpt>
      <trkpt lat="44.20659" lon="0.68771">
        <ele>158.2</ele>
        <time>2022-10-23T15:19:32+02:00</time>
      </trkpt>
      <trkpt lat="44.20672" lon="0.68775">
        <ele>157.6</ele>
        <time>2022-10-23T15:19:43+02:00</time>
      </trkpt>
      <trkpt lat="44.20686" lon="0.6878">
        <ele>156.6</ele>
        <time>2022-10-23T15:19:54+02:00</time>
      </trkpt>
      <trkpt lat="44.207" lon="0.68784">
        <ele>155.8</ele>
        <time>2022-10-23T15:20:06+02:00</time>
      </trkpt>
      <trkpt lat="44.20713" lon="0.68788">
        <ele>155.6</ele>
        <time>2022-10-23T15:20:15+02:00</time>
      </trkpt>
      <trkpt lat="44.20728" lon="0.68795">
        <ele>155.5</ele>
        <time>2022-10-23T15:20:24+02:00</time>
      </trkpt>
      <trkpt lat="44.20742" lon="0.688">
        <ele>155.6</ele>
        <time>2022-10-23T15:20:35+02:00</time>
      </trkpt>
      <trkpt lat="44.20755" lon="0.68805">
        <ele>155.8</ele>
        <time>2022-10-23T15:20:45+02:00</time>
      </trkpt>
      <trkpt lat="44.20769" lon="0.6881">
        <ele>155.6</ele>
        <time>2022-10-23T15:20:55+02:00</time>
      </trkpt>
      <trkpt lat="44.20784" lon="0.68815">
        <ele>155.6</ele>
        <time>2022-10-23T15:21:07+02:00</time>
      </trkpt>
      <trkpt lat="44.20797" lon="0.68817">
        <ele>155.5</ele>
        <time>2022-10-23T15:21:18+02:00</time>
      </trkpt>
      <trkpt lat="44.20811" lon="0.68821">
        <ele>155.4</ele>
        <time>2022-10-23T15:21:32+02:00</time>
      </trkpt>
      <trkpt lat="44.20824" lon="0.68828">
        <ele>155.1</ele>
        <time>2022-10-23T15:21:43+02:00</time>
      </trkpt>
      <trkpt lat="44.20838" lon="0.68832">
        <ele>154.8</ele>
        <time>2022-10-23T15:21:58+02:00</time>
      </trkpt>
      <trkpt lat="44.20852" lon="0.68834">
        <ele>154.3</ele>
        <time>2022-10-23T15:22:11+02:00</time>
      </trkpt>
      <trkpt lat="44.20865" lon="0.68828">
        <ele>153.5</ele>
        <time>2022-10-23T15:22:30+02:00</time>
      </trkpt>
      <trkpt lat="44.2088" lon="0.68823">
        <ele>151.9</ele>
        <time>2022-10-23T15:22:40+02:00</time>
      </trkpt>
      <trkpt lat="44.20893" lon="0.68817">
        <ele>151.5</ele>
        <time>2022-10-23T15:22:53+02:00</time>
      </trkpt>
      <trkpt lat="44.20906" lon="0.6881">
        <ele>151.3</ele>
        <time>2022-10-23T15:23:06+02:00</time>
      </trkpt>
      <trkpt lat="44.20915" lon="0.68795">
        <ele>153.6</ele>
        <time>2022-10-23T15:23:19+02:00</time>
      </trkpt>
      <trkpt lat="44.20922" lon="0.68778">
        <ele>155.6</ele>
        <time>2022-10-23T15:23:46+02:00</time>
      </trkpt>
      <trkpt lat="44.20918" lon="0.6876">
        <ele>157.2</ele>
        <time>2022-10-23T15:24:01+02:00</time>
      </trkpt>
      <trkpt lat="44.20914" lon="0.68742">
        <ele>158.3</ele>
        <time>2022-10-23T15:24:19+02:00</time>
      </trkpt>
      <trkpt lat="44.20905" lon="0.68728">
        <ele>158.5</ele>
        <time>2022-10-23T15:24:34+02:00</time>
      </trkpt>
      <trkpt lat="44.20892" lon="0.68722">
        <ele>158.1</ele>
        <time>2022-10-23T15:24:49+02:00</time>
      </trkpt>
      <trkpt lat="44.20884" lon="0.68705">
        <ele>156.2</ele>
        <time>2022-10-23T15:25:02+02:00</time>
      </trkpt>
      <trkpt lat="44.20876" lon="0.68689">
        <ele>155</ele>
        <time>2022-10-23T15:25:14+02:00</time>
      </trkpt>
      <trkpt lat="44.20869" lon="0.68673">
        <ele>154.4</ele>
        <time>2022-10-23T15:25:27+02:00</time>
      </trkpt>
      <trkpt lat="44.20861" lon="0.68657">
        <ele>153.7</ele>
        <time>2022-10-23T15:25:42+02:00</time>
      </trkpt>
      <trkpt lat="44.2085" lon="0.68644">
        <ele>153.2</ele>
        <time>2022-10-23T15:25:56+02:00</time>
      </trkpt>
      <trkpt lat="44.20837" lon="0.68635">
        <ele>153</ele>
        <time>2022-10-23T15:26:10+02:00</time>
      </trkpt>
      <trkpt lat="44.20824" lon="0.68629">
        <ele>153.5</ele>
        <time>2022-10-23T15:26:21+02:00</time>
      </trkpt>
      <trkpt lat="44.20811" lon="0.68623">
        <ele>154.3</ele>
        <time>2022-10-23T15:26:32+02:00</time>
      </trkpt>
      <trkpt lat="44.20799" lon="0.68611">
        <ele>155</ele>
        <time>2022-10-23T15:26:47+02:00</time>
      </trkpt>
      <trkpt lat="44.20799" lon="0.68591">
        <ele>155.7</ele>
        <time>2022-10-23T15:26:58+02:00</time>
      </trkpt>
      <trkpt lat="44.20803" lon="0.68573">
        <ele>156.4</ele>
        <time>2022-10-23T15:27:10+02:00</time>
      </trkpt>
      <trkpt lat="44.20808" lon="0.68554">
        <ele>156.8</ele>
        <time>2022-10-23T15:27:22+02:00</time>
      </trkpt>
      <trkpt lat="44.20811" lon="0.68535">
        <ele>156.2</ele>
        <time>2022-10-23T15:27:37+02:00</time>
      </trkpt>
      <trkpt lat="44.20813" lon="0.68516">
        <ele>155.9</ele>
        <time>2022-10-23T15:27:49+02:00</time>
      </trkpt>
      <trkpt lat="44.20809" lon="0.68498">
        <ele>155.8</ele>
        <time>2022-10-23T15:28:04+02:00</time>
      </trkpt>
      <trkpt lat="44.20799" lon="0.68483">
        <ele>155.8</ele>
        <time>2022-10-23T15:28:16+02:00</time>
      </trkpt>
      <trkpt lat="44.20787" lon="0.68474">
        <ele>156.4</ele>
        <time>2022-10-23T15:28:31+02:00</time>
      </trkpt>
      <trkpt lat="44.20775" lon="0.68465">
        <ele>157.4</ele>
        <time>2022-10-23T15:28:44+02:00</time>
      </trkpt>
      <trkpt lat="44.20763" lon="0.68453">
        <ele>158.9</ele>
        <time>2022-10-23T15:28:57+02:00</time>
      </trkpt>
      <trkpt lat="44.20751" lon="0.68445">
        <ele>160.9</ele>
        <time>2022-10-23T15:29:11+02:00</time>
      </trkpt>
      <trkpt lat="44.20739" lon="0.68433">
        <ele>162.1</ele>
        <time>2022-10-23T15:29:25+02:00</time>
      </trkpt>
      <trkpt lat="44.20726" lon="0.68425">
        <ele>164.1</ele>
        <time>2022-10-23T15:29:40+02:00</time>
      </trkpt>
      <trkpt lat="44.20715" lon="0.68413">
        <ele>165.9</ele>
        <time>2022-10-23T15:29:55+02:00</time>
      </trkpt>
      <trkpt lat="44.20703" lon="0.68401">
        <ele>167.2</ele>
        <time>2022-10-23T15:30:08+02:00</time>
      </trkpt>
      <trkpt lat="44.20691" lon="0.68393">
        <ele>168.3</ele>
        <time>2022-10-23T15:30:21+02:00</time>
      </trkpt>
      <trkpt lat="44.20678" lon="0.68387">
        <ele>169.2</ele>
        <time>2022-10-23T15:30:34+02:00</time>
      </trkpt>
      <trkpt lat="44.20665" lon="0.68379">
        <ele>170.4</ele>
        <time>2022-10-23T15:30:45+02:00</time>
      </trkpt>
      <trkpt lat="44.20652" lon="0.68371">
        <ele>170.8</ele>
        <time>2022-10-23T15:30:56+02:00</time>
      </trkpt>
      <trkpt lat="44.20639" lon="0.68364">
        <ele>171</ele>
        <time>2022-10-23T15:31:09+02:00</time>
      </trkpt>
      <trkpt lat="44.20626" lon="0.68357">
        <ele>171.6</ele>
        <time>2022-10-23T15:31:21+02:00</time>
      </trkpt>
      <trkpt lat="44.20613" lon="0.68348">
        <ele>172.8</ele>
        <time>2022-10-23T15:31:33+02:00</time>
      </trkpt>
      <trkpt lat="44.20602" lon="0.68337">
        <ele>173.5</ele>
        <time>2022-10-23T15:31:46+02:00</time>
      </trkpt>
      <trkpt lat="44.20597" lon="0.68319">
        <ele>173.8</ele>
        <time>2022-10-23T15:32:01+02:00</time>
      </trkpt>
      <trkpt lat="44.20594" lon="0.683">
        <ele>174.3</ele>
        <time>2022-10-23T15:32:11+02:00</time>
      </trkpt>
      <trkpt lat="44.20587" lon="0.68284">
        <ele>175.4</ele>
        <time>2022-10-23T15:35:13+02:00</time>
      </trkpt>
      <trkpt lat="44.20573" lon="0.6828">
        <ele>175.5</ele>
        <time>2022-10-23T15:35:27+02:00</time>
      </trkpt>
      <trkpt lat="44.20561" lon="0.68269">
        <ele>176.3</ele>
        <time>2022-10-23T15:35:42+02:00</time>
      </trkpt>
      <trkpt lat="44.2055" lon="0.68259">
        <ele>177.2</ele>
        <time>2022-10-23T15:35:59+02:00</time>
      </trkpt>
      <trkpt lat="44.20538" lon="0.68249">
        <ele>177.2</ele>
        <time>2022-10-23T15:36:13+02:00</time>
      </trkpt>
      <trkpt lat="44.20525" lon="0.68242">
        <ele>177.3</ele>
        <time>2022-10-23T15:36:24+02:00</time>
      </trkpt>
      <trkpt lat="44.20511" lon="0.68237">
        <ele>178.4</ele>
        <time>2022-10-23T15:36:38+02:00</time>
      </trkpt>
      <trkpt lat="44.20496" lon="0.68236">
        <ele>178.9</ele>
        <time>2022-10-23T15:36:53+02:00</time>
      </trkpt>
      <trkpt lat="44.20482" lon="0.68234">
        <ele>179</ele>
        <time>2022-10-23T15:37:07+02:00</time>
      </trkpt>
      <trkpt lat="44.20468" lon="0.68231">
        <ele>178.8</ele>
        <time>2022-10-23T15:37:19+02:00</time>
      </trkpt>
      <trkpt lat="44.20454" lon="0.68228">
        <ele>178.2</ele>
        <time>2022-10-23T15:37:30+02:00</time>
      </trkpt>
      <trkpt lat="44.20441" lon="0.68222">
        <ele>177.8</ele>
        <time>2022-10-23T15:37:42+02:00</time>
      </trkpt>
      <trkpt lat="44.20428" lon="0.68216">
        <ele>177</ele>
        <time>2022-10-23T15:37:53+02:00</time>
      </trkpt>
      <trkpt lat="44.20413" lon="0.6821">
        <ele>176.1</ele>
        <time>2022-10-23T15:38:03+02:00</time>
      </trkpt>
      <trkpt lat="44.204" lon="0.68204">
        <ele>174.9</ele>
        <time>2022-10-23T15:38:17+02:00</time>
      </trkpt>
      <trkpt lat="44.20386" lon="0.682">
        <ele>173.5</ele>
        <time>2022-10-23T15:38:29+02:00</time>
      </trkpt>
      <trkpt lat="44.20372" lon="0.68198">
        <ele>172.2</ele>
        <time>2022-10-23T15:38:42+02:00</time>
      </trkpt>
      <trkpt lat="44.20359" lon="0.68195">
        <ele>170.9</ele>
        <time>2022-10-23T15:38:55+02:00</time>
      </trkpt>
      <trkpt lat="44.20344" lon="0.68194">
        <ele>170.4</ele>
        <time>2022-10-23T15:39:07+02:00</time>
      </trkpt>
      <trkpt lat="44.20331" lon="0.68197">
        <ele>169.8</ele>
        <time>2022-10-23T15:39:18+02:00</time>
      </trkpt>
      <trkpt lat="44.20316" lon="0.68196">
        <ele>168.8</ele>
        <time>2022-10-23T15:39:30+02:00</time>
      </trkpt>
      <trkpt lat="44.20302" lon="0.68197">
        <ele>168</ele>
        <time>2022-10-23T15:39:45+02:00</time>
      </trkpt>
      <trkpt lat="44.20289" lon="0.68202">
        <ele>167.8</ele>
        <time>2022-10-23T15:39:55+02:00</time>
      </trkpt>
      <trkpt lat="44.20275" lon="0.68204">
        <ele>167.7</ele>
        <time>2022-10-23T15:40:06+02:00</time>
      </trkpt>
      <trkpt lat="44.20262" lon="0.68203">
        <ele>168.2</ele>
        <time>2022-10-23T15:40:18+02:00</time>
      </trkpt>
      <trkpt lat="44.20249" lon="0.68197">
        <ele>168.3</ele>
        <time>2022-10-23T15:40:33+02:00</time>
      </trkpt>
      <trkpt lat="44.20235" lon="0.68194">
        <ele>169.6</ele>
        <time>2022-10-23T15:40:48+02:00</time>
      </trkpt>
      <trkpt lat="44.20221" lon="0.68188">
        <ele>170.9</ele>
        <time>2022-10-23T15:41:02+02:00</time>
      </trkpt>
      <trkpt lat="44.20208" lon="0.68182">
        <ele>171.6</ele>
        <time>2022-10-23T15:41:14+02:00</time>
      </trkpt>
      <trkpt lat="44.20195" lon="0.68174">
        <ele>172.2</ele>
        <time>2022-10-23T15:41:24+02:00</time>
      </trkpt>
      <trkpt lat="44.20181" lon="0.6817">
        <ele>172.6</ele>
        <time>2022-10-23T15:41:38+02:00</time>
      </trkpt>
      <trkpt lat="44.2017" lon="0.68158">
        <ele>172.9</ele>
        <time>2022-10-23T15:41:53+02:00</time>
      </trkpt>
      <trkpt lat="44.20172" lon="0.68138">
        <ele>172.8</ele>
        <time>2022-10-23T15:42:07+02:00</time>
      </trkpt>
      <trkpt lat="44.20175" lon="0.68119">
        <ele>172</ele>
        <time>2022-10-23T15:42:21+02:00</time>
      </trkpt>
      <trkpt lat="44.20177" lon="0.68099">
        <ele>171</ele>
        <time>2022-10-23T15:42:34+02:00</time>
      </trkpt>
      <trkpt lat="44.20179" lon="0.6808">
        <ele>170</ele>
        <time>2022-10-23T15:42:49+02:00</time>
      </trkpt>
      <trkpt lat="44.20185" lon="0.68063">
        <ele>169</ele>
        <time>2022-10-23T15:43:02+02:00</time>
      </trkpt>
      <trkpt lat="44.20187" lon="0.68043">
        <ele>168</ele>
        <time>2022-10-23T15:43:18+02:00</time>
      </trkpt>
      <trkpt lat="44.20189" lon="0.68023">
        <ele>167.3</ele>
        <time>2022-10-23T15:43:29+02:00</time>
      </trkpt>
      <trkpt lat="44.20191" lon="0.68003">
        <ele>166.4</ele>
        <time>2022-10-23T15:43:42+02:00</time>
      </trkpt>
      <trkpt lat="44.20181" lon="0.67989">
        <ele>166.2</ele>
        <time>2022-10-23T15:43:53+02:00</time>
      </trkpt>
      <trkpt lat="44.20167" lon="0.67983">
        <ele>166.2</ele>
        <time>2022-10-23T15:44:07+02:00</time>
      </trkpt>
      <trkpt lat="44.20154" lon="0.67977">
        <ele>165.4</ele>
        <time>2022-10-23T15:44:22+02:00</time>
      </trkpt>
      <trkpt lat="44.20139" lon="0.67971">
        <ele>165</ele>
        <time>2022-10-23T15:44:36+02:00</time>
      </trkpt>
      <trkpt lat="44.20125" lon="0.67967">
        <ele>164</ele>
        <time>2022-10-23T15:44:49+02:00</time>
      </trkpt>
      <trkpt lat="44.20111" lon="0.67968">
        <ele>163.1</ele>
        <time>2022-10-23T15:45:01+02:00</time>
      </trkpt>
      <trkpt lat="44.20097" lon="0.67966">
        <ele>162.5</ele>
        <time>2022-10-23T15:45:14+02:00</time>
      </trkpt>
      <trkpt lat="44.20084" lon="0.6796">
        <ele>161.6</ele>
        <time>2022-10-23T15:45:23+02:00</time>
      </trkpt>
      <trkpt lat="44.20071" lon="0.67955">
        <ele>159.9</ele>
        <time>2022-10-23T15:45:35+02:00</time>
      </trkpt>
      <trkpt lat="44.20057" lon="0.67952">
        <ele>157.9</ele>
        <time>2022-10-23T15:45:48+02:00</time>
      </trkpt>
      <trkpt lat="44.20043" lon="0.67946">
        <ele>156.2</ele>
        <time>2022-10-23T15:45:59+02:00</time>
      </trkpt>
      <trkpt lat="44.20029" lon="0.67944">
        <ele>155.1</ele>
        <time>2022-10-23T15:46:13+02:00</time>
      </trkpt>
      <trkpt lat="44.20022" lon="0.67927">
        <ele>155.2</ele>
        <time>2022-10-23T15:46:29+02:00</time>
      </trkpt>
      <trkpt lat="44.20015" lon="0.67911">
        <ele>154.3</ele>
        <time>2022-10-23T15:46:46+02:00</time>
      </trkpt>
      <trkpt lat="44.20009" lon="0.67894">
        <ele>152.8</ele>
        <time>2022-10-23T15:47:00+02:00</time>
      </trkpt>
      <trkpt lat="44.2001" lon="0.67872">
        <ele>152.7</ele>
        <time>2022-10-23T15:47:14+02:00</time>
      </trkpt>
      <trkpt lat="44.20004" lon="0.67854">
        <ele>152.3</ele>
        <time>2022-10-23T15:47:26+02:00</time>
      </trkpt>
      <trkpt lat="44.20001" lon="0.67835">
        <ele>152</ele>
        <time>2022-10-23T15:47:38+02:00</time>
      </trkpt>
      <trkpt lat="44.20003" lon="0.67816">
        <ele>151</ele>
        <time>2022-10-23T15:47:54+02:00</time>
      </trkpt>
      <trkpt lat="44.20007" lon="0.67798">
        <ele>150.5</ele>
        <time>2022-10-23T15:48:09+02:00</time>
      </trkpt>
      <trkpt lat="44.20013" lon="0.6778">
        <ele>150.9</ele>
        <time>2022-10-23T15:48:23+02:00</time>
      </trkpt>
      <trkpt lat="44.2002" lon="0.67762">
        <ele>150.9</ele>
        <time>2022-10-23T15:48:34+02:00</time>
      </trkpt>
      <trkpt lat="44.20025" lon="0.67744">
        <ele>150.8</ele>
        <time>2022-10-23T15:48:47+02:00</time>
      </trkpt>
      <trkpt lat="44.20029" lon="0.67725">
        <ele>151.1</ele>
        <time>2022-10-23T15:49:01+02:00</time>
      </trkpt>
      <trkpt lat="44.20035" lon="0.67706">
        <ele>151.3</ele>
        <time>2022-10-23T15:49:15+02:00</time>
      </trkpt>
      <trkpt lat="44.20042" lon="0.67689">
        <ele>151.4</ele>
        <time>2022-10-23T15:49:26+02:00</time>
      </trkpt>
      <trkpt lat="44.20047" lon="0.6767">
        <ele>151.4</ele>
        <time>2022-10-23T15:49:41+02:00</time>
      </trkpt>
      <trkpt lat="44.2005" lon="0.67651">
        <ele>151.6</ele>
        <time>2022-10-23T15:49:54+02:00</time>
      </trkpt>
      <trkpt lat="44.20054" lon="0.67633">
        <ele>151.6</ele>
        <time>2022-10-23T15:50:09+02:00</time>
      </trkpt>
      <trkpt lat="44.20058" lon="0.67615">
        <ele>151.4</ele>
        <time>2022-10-23T15:50:48+02:00</time>
      </trkpt>
      <trkpt lat="44.20045" lon="0.67606">
        <ele>150.7</ele>
        <time>2022-10-23T15:51:57+02:00</time>
      </trkpt>
      <trkpt lat="44.20031" lon="0.67606">
        <ele>150.1</ele>
        <time>2022-10-23T15:52:09+02:00</time>
      </trkpt>
      <trkpt lat="44.20016" lon="0.67603">
        <ele>148.9</ele>
        <time>2022-10-23T15:52:20+02:00</time>
      </trkpt>
      <trkpt lat="44.20003" lon="0.67598">
        <ele>147.7</ele>
        <time>2022-10-23T15:52:33+02:00</time>
      </trkpt>
      <trkpt lat="44.19991" lon="0.67588">
        <ele>145.5</ele>
        <time>2022-10-23T15:52:47+02:00</time>
      </trkpt>
      <trkpt lat="44.19979" lon="0.67579">
        <ele>144.1</ele>
        <time>2022-10-23T15:52:57+02:00</time>
      </trkpt>
      <trkpt lat="44.19966" lon="0.67569">
        <ele>143.7</ele>
        <time>2022-10-23T15:53:09+02:00</time>
      </trkpt>
      <trkpt lat="44.19952" lon="0.67562">
        <ele>143.8</ele>
        <time>2022-10-23T15:53:20+02:00</time>
      </trkpt>
      <trkpt lat="44.19939" lon="0.67556">
        <ele>143.9</ele>
        <time>2022-10-23T15:53:32+02:00</time>
      </trkpt>
      <trkpt lat="44.19926" lon="0.67548">
        <ele>142.8</ele>
        <time>2022-10-23T15:53:43+02:00</time>
      </trkpt>
      <trkpt lat="44.19915" lon="0.67537">
        <ele>143</ele>
        <time>2022-10-23T15:53:56+02:00</time>
      </trkpt>
      <trkpt lat="44.19905" lon="0.67523">
        <ele>142.8</ele>
        <time>2022-10-23T15:54:07+02:00</time>
      </trkpt>
      <trkpt lat="44.19894" lon="0.67509">
        <ele>142.5</ele>
        <time>2022-10-23T15:54:19+02:00</time>
      </trkpt>
      <trkpt lat="44.19883" lon="0.67496">
        <ele>142.1</ele>
        <time>2022-10-23T15:54:31+02:00</time>
      </trkpt>
      <trkpt lat="44.19871" lon="0.67486">
        <ele>141</ele>
        <time>2022-10-23T15:54:43+02:00</time>
      </trkpt>
      <trkpt lat="44.19859" lon="0.67478">
        <ele>140.9</ele>
        <time>2022-10-23T15:54:54+02:00</time>
      </trkpt>
      <trkpt lat="44.19846" lon="0.67473">
        <ele>141.3</ele>
        <time>2022-10-23T15:55:07+02:00</time>
      </trkpt>
      <trkpt lat="44.19831" lon="0.67474">
        <ele>140.4</ele>
        <time>2022-10-23T15:55:22+02:00</time>
      </trkpt>
      <trkpt lat="44.19817" lon="0.67473">
        <ele>139.5</ele>
        <time>2022-10-23T15:55:34+02:00</time>
      </trkpt>
      <trkpt lat="44.19803" lon="0.67472">
        <ele>138.8</ele>
        <time>2022-10-23T15:55:46+02:00</time>
      </trkpt>
      <trkpt lat="44.19788" lon="0.67475">
        <ele>136.7</ele>
        <time>2022-10-23T15:55:58+02:00</time>
      </trkpt>
      <trkpt lat="44.19775" lon="0.67473">
        <ele>136.7</ele>
        <time>2022-10-23T15:56:07+02:00</time>
      </trkpt>
      <trkpt lat="44.1976" lon="0.67478">
        <ele>139.7</ele>
        <time>2022-10-23T15:56:20+02:00</time>
      </trkpt>
      <trkpt lat="44.19737" lon="0.67496">
        <ele>141.8</ele>
        <time>2022-10-23T15:57:08+02:00</time>
      </trkpt>
      <trkpt lat="44.19728" lon="0.6751">
        <ele>141.7</ele>
        <time>2022-10-23T15:58:23+02:00</time>
      </trkpt>
      <trkpt lat="44.19716" lon="0.67522">
        <ele>142.4</ele>
        <time>2022-10-23T15:58:40+02:00</time>
      </trkpt>
      <trkpt lat="44.19705" lon="0.67534">
        <ele>142.6</ele>
        <time>2022-10-23T15:58:52+02:00</time>
      </trkpt>
      <trkpt lat="44.19692" lon="0.67543">
        <ele>143.5</ele>
        <time>2022-10-23T15:59:04+02:00</time>
      </trkpt>
      <trkpt lat="44.19678" lon="0.67549">
        <ele>143.3</ele>
        <time>2022-10-23T15:59:18+02:00</time>
      </trkpt>
      <trkpt lat="44.19665" lon="0.67556">
        <ele>142.8</ele>
        <time>2022-10-23T15:59:29+02:00</time>
      </trkpt>
      <trkpt lat="44.19652" lon="0.6756">
        <ele>141.2</ele>
        <time>2022-10-23T15:59:39+02:00</time>
      </trkpt>
      <trkpt lat="44.19638" lon="0.67555">
        <ele>140.7</ele>
        <time>2022-10-23T15:59:52+02:00</time>
      </trkpt>
      <trkpt lat="44.19626" lon="0.67544">
        <ele>139.3</ele>
        <time>2022-10-23T16:00:04+02:00</time>
      </trkpt>
      <trkpt lat="44.19612" lon="0.67536">
        <ele>137.4</ele>
        <time>2022-10-23T16:00:17+02:00</time>
      </trkpt>
      <trkpt lat="44.196" lon="0.67528">
        <ele>137.7</ele>
        <time>2022-10-23T16:00:29+02:00</time>
      </trkpt>
      <trkpt lat="44.19586" lon="0.67524">
        <ele>137.2</ele>
        <time>2022-10-23T16:00:45+02:00</time>
      </trkpt>
      <trkpt lat="44.19572" lon="0.67522">
        <ele>137.1</ele>
        <time>2022-10-23T16:00:58+02:00</time>
      </trkpt>
      <trkpt lat="44.19559" lon="0.67526">
        <ele>135.5</ele>
        <time>2022-10-23T16:01:09+02:00</time>
      </trkpt>
      <trkpt lat="44.19545" lon="0.67528">
        <ele>134.9</ele>
        <time>2022-10-23T16:01:20+02:00</time>
      </trkpt>
      <trkpt lat="44.19531" lon="0.67528">
        <ele>135</ele>
        <time>2022-10-23T16:01:33+02:00</time>
      </trkpt>
      <trkpt lat="44.19517" lon="0.67524">
        <ele>134.6</ele>
        <time>2022-10-23T16:01:43+02:00</time>
      </trkpt>
      <trkpt lat="44.19503" lon="0.6752">
        <ele>133.8</ele>
        <time>2022-10-23T16:01:51+02:00</time>
      </trkpt>
      <trkpt lat="44.19489" lon="0.67517">
        <ele>133.6</ele>
        <time>2022-10-23T16:02:00+02:00</time>
      </trkpt>
      <trkpt lat="44.19475" lon="0.67518">
        <ele>132.1</ele>
        <time>2022-10-23T16:02:10+02:00</time>
      </trkpt>
      <trkpt lat="44.19459" lon="0.67514">
        <ele>132.2</ele>
        <time>2022-10-23T16:02:19+02:00</time>
      </trkpt>
      <trkpt lat="44.19446" lon="0.67513">
        <ele>131.9</ele>
        <time>2022-10-23T16:02:29+02:00</time>
      </trkpt>
      <trkpt lat="44.19432" lon="0.67512">
        <ele>132.9</ele>
        <time>2022-10-23T16:02:41+02:00</time>
      </trkpt>
      <trkpt lat="44.19419" lon="0.6752">
        <ele>131.7</ele>
        <time>2022-10-23T16:02:54+02:00</time>
      </trkpt>
      <trkpt lat="44.19408" lon="0.67531">
        <ele>131.7</ele>
        <time>2022-10-23T16:03:02+02:00</time>
      </trkpt>
      <trkpt lat="44.19401" lon="0.6755">
        <ele>130.4</ele>
        <time>2022-10-23T16:03:11+02:00</time>
      </trkpt>
      <trkpt lat="44.19397" lon="0.6757">
        <ele>129</ele>
        <time>2022-10-23T16:03:20+02:00</time>
      </trkpt>
      <trkpt lat="44.19395" lon="0.67589">
        <ele>128.1</ele>
        <time>2022-10-23T16:03:28+02:00</time>
      </trkpt>
      <trkpt lat="44.19394" lon="0.67609">
        <ele>127.5</ele>
        <time>2022-10-23T16:03:38+02:00</time>
      </trkpt>
      <trkpt lat="44.19381" lon="0.67607">
        <ele>131.4</ele>
        <time>2022-10-23T16:04:30+02:00</time>
      </trkpt>
      <trkpt lat="44.1938" lon="0.67587">
        <ele>133.2</ele>
        <time>2022-10-23T16:04:43+02:00</time>
      </trkpt>
      <trkpt lat="44.19377" lon="0.67568">
        <ele>136.9</ele>
        <time>2022-10-23T16:04:55+02:00</time>
      </trkpt>
      <trkpt lat="44.19377" lon="0.67549">
        <ele>139.2</ele>
        <time>2022-10-23T16:05:08+02:00</time>
      </trkpt>
      <trkpt lat="44.19379" lon="0.67529">
        <ele>140.2</ele>
        <time>2022-10-23T16:05:21+02:00</time>
      </trkpt>
      <trkpt lat="44.19386" lon="0.67512">
        <ele>141.1</ele>
        <time>2022-10-23T16:05:34+02:00</time>
      </trkpt>
      <trkpt lat="44.19394" lon="0.67497">
        <ele>142.3</ele>
        <time>2022-10-23T16:05:47+02:00</time>
      </trkpt>
      <trkpt lat="44.19399" lon="0.6748">
        <ele>144.3</ele>
        <time>2022-10-23T16:05:58+02:00</time>
      </trkpt>
      <trkpt lat="44.19403" lon="0.67462">
        <ele>144.5</ele>
        <time>2022-10-23T16:06:59+02:00</time>
      </trkpt>
      <trkpt lat="44.19406" lon="0.67443">
        <ele>142.2</ele>
        <time>2022-10-23T16:07:10+02:00</time>
      </trkpt>
      <trkpt lat="44.19409" lon="0.67424">
        <ele>142.1</ele>
        <time>2022-10-23T16:07:23+02:00</time>
      </trkpt>
      <trkpt lat="44.19411" lon="0.67404">
        <ele>143.1</ele>
        <time>2022-10-23T16:07:35+02:00</time>
      </trkpt>
      <trkpt lat="44.19416" lon="0.67385">
        <ele>144.6</ele>
        <time>2022-10-23T16:07:47+02:00</time>
      </trkpt>
      <trkpt lat="44.1942" lon="0.67367">
        <ele>145.5</ele>
        <time>2022-10-23T16:08:02+02:00</time>
      </trkpt>
      <trkpt lat="44.19422" lon="0.67348">
        <ele>145.4</ele>
        <time>2022-10-23T16:08:36+02:00</time>
      </trkpt>
      <trkpt lat="44.19422" lon="0.67329">
        <ele>145.5</ele>
        <time>2022-10-23T16:08:47+02:00</time>
      </trkpt>
      <trkpt lat="44.19429" lon="0.67312">
        <ele>145.8</ele>
        <time>2022-10-23T16:09:14+02:00</time>
      </trkpt>
      <trkpt lat="44.19432" lon="0.67292">
        <ele>145.9</ele>
        <time>2022-10-23T16:09:33+02:00</time>
      </trkpt>
      <trkpt lat="44.19423" lon="0.67276">
        <ele>146.4</ele>
        <time>2022-10-23T16:09:45+02:00</time>
      </trkpt>
      <trkpt lat="44.19412" lon="0.67264">
        <ele>147.2</ele>
        <time>2022-10-23T16:09:56+02:00</time>
      </trkpt>
      <trkpt lat="44.194" lon="0.67255">
        <ele>147.6</ele>
        <time>2022-10-23T16:10:06+02:00</time>
      </trkpt>
      <trkpt lat="44.19391" lon="0.6724">
        <ele>148</ele>
        <time>2022-10-23T16:10:19+02:00</time>
      </trkpt>
      <trkpt lat="44.19381" lon="0.67227">
        <ele>148.3</ele>
        <time>2022-10-23T16:10:31+02:00</time>
      </trkpt>
      <trkpt lat="44.19372" lon="0.67213">
        <ele>148.6</ele>
        <time>2022-10-23T16:10:46+02:00</time>
      </trkpt>
      <trkpt lat="44.19364" lon="0.67196">
        <ele>148.9</ele>
        <time>2022-10-23T16:11:01+02:00</time>
      </trkpt>
      <trkpt lat="44.19354" lon="0.67182">
        <ele>148.2</ele>
        <time>2022-10-23T16:11:14+02:00</time>
      </trkpt>
      <trkpt lat="44.19347" lon="0.67165">
        <ele>147.3</ele>
        <time>2022-10-23T16:11:26+02:00</time>
      </trkpt>
      <trkpt lat="44.19337" lon="0.67152">
        <ele>146.9</ele>
        <time>2022-10-23T16:11:36+02:00</time>
      </trkpt>
      <trkpt lat="44.19326" lon="0.6714">
        <ele>147.3</ele>
        <time>2022-10-23T16:11:48+02:00</time>
      </trkpt>
      <trkpt lat="44.19314" lon="0.6713">
        <ele>147.8</ele>
        <time>2022-10-23T16:12:03+02:00</time>
      </trkpt>
      <trkpt lat="44.19301" lon="0.67122">
        <ele>148.1</ele>
        <time>2022-10-23T16:12:16+02:00</time>
      </trkpt>
      <trkpt lat="44.19288" lon="0.67112">
        <ele>148.6</ele>
        <time>2022-10-23T16:12:27+02:00</time>
      </trkpt>
      <trkpt lat="44.19277" lon="0.67101">
        <ele>149</ele>
        <time>2022-10-23T16:12:41+02:00</time>
      </trkpt>
      <trkpt lat="44.19266" lon="0.67087">
        <ele>149.4</ele>
        <time>2022-10-23T16:12:54+02:00</time>
      </trkpt>
      <trkpt lat="44.19257" lon="0.67073">
        <ele>149.8</ele>
        <time>2022-10-23T16:13:03+02:00</time>
      </trkpt>
      <trkpt lat="44.19255" lon="0.67053">
        <ele>149.8</ele>
        <time>2022-10-23T16:13:14+02:00</time>
      </trkpt>
      <trkpt lat="44.19257" lon="0.67034">
        <ele>149.7</ele>
        <time>2022-10-23T16:13:25+02:00</time>
      </trkpt>
      <trkpt lat="44.19258" lon="0.67014">
        <ele>149.7</ele>
        <time>2022-10-23T16:13:37+02:00</time>
      </trkpt>
      <trkpt lat="44.19257" lon="0.66994">
        <ele>149.6</ele>
        <time>2022-10-23T16:13:47+02:00</time>
      </trkpt>
      <trkpt lat="44.19261" lon="0.66974">
        <ele>149</ele>
        <time>2022-10-23T16:13:57+02:00</time>
      </trkpt>
      <trkpt lat="44.19261" lon="0.66955">
        <ele>149</ele>
        <time>2022-10-23T16:14:08+02:00</time>
      </trkpt>
      <trkpt lat="44.19258" lon="0.66936">
        <ele>149</ele>
        <time>2022-10-23T16:14:22+02:00</time>
      </trkpt>
      <trkpt lat="44.19263" lon="0.66917">
        <ele>149</ele>
        <time>2022-10-23T16:14:50+02:00</time>
      </trkpt>
      <trkpt lat="44.19261" lon="0.66897">
        <ele>149</ele>
        <time>2022-10-23T16:15:00+02:00</time>
      </trkpt>
      <trkpt lat="44.19258" lon="0.66879">
        <ele>149</ele>
        <time>2022-10-23T16:15:10+02:00</time>
      </trkpt>
      <trkpt lat="44.19256" lon="0.66858">
        <ele>149</ele>
        <time>2022-10-23T16:15:24+02:00</time>
      </trkpt>
      <trkpt lat="44.19254" lon="0.66839">
        <ele>149</ele>
        <time>2022-10-23T16:15:35+02:00</time>
      </trkpt>
      <trkpt lat="44.1925" lon="0.66821">
        <ele>149</ele>
        <time>2022-10-23T16:15:47+02:00</time>
      </trkpt>
      <trkpt lat="44.19247" lon="0.66802">
        <ele>149</ele>
        <time>2022-10-23T16:16:00+02:00</time>
      </trkpt>
      <trkpt lat="44.19245" lon="0.66763">
        <ele>149</ele>
        <time>2022-10-23T16:16:26+02:00</time>
      </trkpt>
      <trkpt lat="44.19242" lon="0.66745">
        <ele>148.9</ele>
        <time>2022-10-23T16:16:39+02:00</time>
      </trkpt>
      <trkpt lat="44.19239" lon="0.66725">
        <ele>148.5</ele>
        <time>2022-10-23T16:16:50+02:00</time>
      </trkpt>
      <trkpt lat="44.19237" lon="0.66705">
        <ele>148.5</ele>
        <time>2022-10-23T16:17:02+02:00</time>
      </trkpt>
      <trkpt lat="44.19234" lon="0.66686">
        <ele>148.6</ele>
        <time>2022-10-23T16:17:13+02:00</time>
      </trkpt>
      <trkpt lat="44.19229" lon="0.66668">
        <ele>148.7</ele>
        <time>2022-10-23T16:17:25+02:00</time>
      </trkpt>
      <trkpt lat="44.19216" lon="0.66665">
        <ele>148.9</ele>
        <time>2022-10-23T16:17:36+02:00</time>
      </trkpt>
      <trkpt lat="44.19202" lon="0.66662">
        <ele>149</ele>
        <time>2022-10-23T16:17:47+02:00</time>
      </trkpt>
      <trkpt lat="44.19188" lon="0.6666">
        <ele>149.2</ele>
        <time>2022-10-23T16:17:57+02:00</time>
      </trkpt>
      <trkpt lat="44.19174" lon="0.66659">
        <ele>149.8</ele>
        <time>2022-10-23T16:18:09+02:00</time>
      </trkpt>
      <trkpt lat="44.1916" lon="0.66657">
        <ele>150.1</ele>
        <time>2022-10-23T16:18:20+02:00</time>
      </trkpt>
      <trkpt lat="44.19146" lon="0.66656">
        <ele>150.3</ele>
        <time>2022-10-23T16:18:31+02:00</time>
      </trkpt>
      <trkpt lat="44.19132" lon="0.66658">
        <ele>150.4</ele>
        <time>2022-10-23T16:18:42+02:00</time>
      </trkpt>
      <trkpt lat="44.19118" lon="0.66662">
        <ele>150.7</ele>
        <time>2022-10-23T16:18:53+02:00</time>
      </trkpt>
      <trkpt lat="44.19105" lon="0.66667">
        <ele>150.8</ele>
        <time>2022-10-23T16:19:05+02:00</time>
      </trkpt>
      <trkpt lat="44.19092" lon="0.66675">
        <ele>150.2</ele>
        <time>2022-10-23T16:19:16+02:00</time>
      </trkpt>
      <trkpt lat="44.19079" lon="0.66682">
        <ele>147.6</ele>
        <time>2022-10-23T16:19:28+02:00</time>
      </trkpt>
      <trkpt lat="44.19068" lon="0.66672">
        <ele>141.5</ele>
        <time>2022-10-23T16:19:42+02:00</time>
      </trkpt>
      <trkpt lat="44.19071" lon="0.6669">
        <ele>143.2</ele>
        <time>2022-10-23T16:22:07+02:00</time>
      </trkpt>
      <trkpt lat="44.19072" lon="0.6671">
        <ele>144.2</ele>
        <time>2022-10-23T16:26:09+02:00</time>
      </trkpt>
      <trkpt lat="44.19074" lon="0.66728">
        <ele>145.6</ele>
        <time>2022-10-23T16:26:23+02:00</time>
      </trkpt>
      <trkpt lat="44.19074" lon="0.66748">
        <ele>144.7</ele>
        <time>2022-10-23T16:26:35+02:00</time>
      </trkpt>
      <trkpt lat="44.19077" lon="0.66768">
        <ele>145.8</ele>
        <time>2022-10-23T16:26:48+02:00</time>
      </trkpt>
      <trkpt lat="44.1908" lon="0.66786">
        <ele>146.8</ele>
        <time>2022-10-23T16:27:01+02:00</time>
      </trkpt>
      <trkpt lat="44.19083" lon="0.66807">
        <ele>146.9</ele>
        <time>2022-10-23T16:27:14+02:00</time>
      </trkpt>
      <trkpt lat="44.19085" lon="0.66825">
        <ele>146.4</ele>
        <time>2022-10-23T16:27:24+02:00</time>
      </trkpt>
      <trkpt lat="44.19095" lon="0.66839">
        <ele>145.7</ele>
        <time>2022-10-23T16:27:37+02:00</time>
      </trkpt>
      <trkpt lat="44.19107" lon="0.66853">
        <ele>145.5</ele>
        <time>2022-10-23T16:27:49+02:00</time>
      </trkpt>
      <trkpt lat="44.19115" lon="0.6687">
        <ele>145.2</ele>
        <time>2022-10-23T16:28:00+02:00</time>
      </trkpt>
      <trkpt lat="44.19122" lon="0.66888">
        <ele>144.3</ele>
        <time>2022-10-23T16:28:12+02:00</time>
      </trkpt>
      <trkpt lat="44.19125" lon="0.66906">
        <ele>143.9</ele>
        <time>2022-10-23T16:28:23+02:00</time>
      </trkpt>
      <trkpt lat="44.19115" lon="0.66894">
        <ele>142.1</ele>
        <time>2022-10-23T16:29:31+02:00</time>
      </trkpt>
      <trkpt lat="44.1911" lon="0.66912">
        <ele>138.2</ele>
        <time>2022-10-23T16:30:17+02:00</time>
      </trkpt>
      <trkpt lat="44.19098" lon="0.66923">
        <ele>132.5</ele>
        <time>2022-10-23T16:30:40+02:00</time>
      </trkpt>
      <trkpt lat="44.19091" lon="0.66939">
        <ele>127.8</ele>
        <time>2022-10-23T16:31:16+02:00</time>
      </trkpt>
      <trkpt lat="44.19085" lon="0.66957">
        <ele>124</ele>
        <time>2022-10-23T16:31:47+02:00</time>
      </trkpt>
      <trkpt lat="44.19079" lon="0.66975">
        <ele>121.2</ele>
        <time>2022-10-23T16:32:10+02:00</time>
      </trkpt>
      <trkpt lat="44.19066" lon="0.66982">
        <ele>115.9</ele>
        <time>2022-10-23T16:32:40+02:00</time>
      </trkpt>
      <trkpt lat="44.19052" lon="0.66982">
        <ele>111.4</ele>
        <time>2022-10-23T16:33:01+02:00</time>
      </trkpt>
      <trkpt lat="44.19039" lon="0.6699">
        <ele>107.6</ele>
        <time>2022-10-23T16:33:34+02:00</time>
      </trkpt>
      <trkpt lat="44.19026" lon="0.66986">
        <ele>104.6</ele>
        <time>2022-10-23T16:33:51+02:00</time>
      </trkpt>
      <trkpt lat="44.19015" lon="0.67">
        <ele>101.3</ele>
        <time>2022-10-23T16:34:23+02:00</time>
      </trkpt>
      <trkpt lat="44.19004" lon="0.67012">
        <ele>98.8</ele>
        <time>2022-10-23T16:34:38+02:00</time>
      </trkpt>
      <trkpt lat="44.18996" lon="0.67027">
        <ele>97.2</ele>
        <time>2022-10-23T16:34:52+02:00</time>
      </trkpt>
      <trkpt lat="44.18985" lon="0.67039">
        <ele>94.9</ele>
        <time>2022-10-23T16:35:06+02:00</time>
      </trkpt>
      <trkpt lat="44.18972" lon="0.67045">
        <ele>92.3</ele>
        <time>2022-10-23T16:35:17+02:00</time>
      </trkpt>
      <trkpt lat="44.18959" lon="0.67038">
        <ele>89.9</ele>
        <time>2022-10-23T16:35:30+02:00</time>
      </trkpt>
      <trkpt lat="44.18945" lon="0.67037">
        <ele>87.1</ele>
        <time>2022-10-23T16:35:43+02:00</time>
      </trkpt>
      <trkpt lat="44.18931" lon="0.67032">
        <ele>85.1</ele>
        <time>2022-10-23T16:35:55+02:00</time>
      </trkpt>
      <trkpt lat="44.18917" lon="0.67026">
        <ele>83</ele>
        <time>2022-10-23T16:36:09+02:00</time>
      </trkpt>
      <trkpt lat="44.18903" lon="0.67019">
        <ele>81.5</ele>
        <time>2022-10-23T16:36:20+02:00</time>
      </trkpt>
      <trkpt lat="44.1889" lon="0.67011">
        <ele>80.1</ele>
        <time>2022-10-23T16:36:33+02:00</time>
      </trkpt>
      <trkpt lat="44.18876" lon="0.67007">
        <ele>78.2</ele>
        <time>2022-10-23T16:36:44+02:00</time>
      </trkpt>
      <trkpt lat="44.18863" lon="0.66999">
        <ele>76.2</ele>
        <time>2022-10-23T16:36:54+02:00</time>
      </trkpt>
      <trkpt lat="44.1885" lon="0.66989">
        <ele>74.8</ele>
        <time>2022-10-23T16:37:05+02:00</time>
      </trkpt>
      <trkpt lat="44.18837" lon="0.66983">
        <ele>73.7</ele>
        <time>2022-10-23T16:37:15+02:00</time>
      </trkpt>
      <trkpt lat="44.18825" lon="0.66976">
        <ele>72.5</ele>
        <time>2022-10-23T16:37:25+02:00</time>
      </trkpt>
      <trkpt lat="44.18812" lon="0.66968">
        <ele>71.4</ele>
        <time>2022-10-23T16:37:45+02:00</time>
      </trkpt>
      <trkpt lat="44.18798" lon="0.66963">
        <ele>70.6</ele>
        <time>2022-10-23T16:37:56+02:00</time>
      </trkpt>
      <trkpt lat="44.18785" lon="0.66954">
        <ele>69.3</ele>
        <time>2022-10-23T16:38:06+02:00</time>
      </trkpt>
      <trkpt lat="44.18772" lon="0.66945">
        <ele>67.8</ele>
        <time>2022-10-23T16:38:18+02:00</time>
      </trkpt>
      <trkpt lat="44.18758" lon="0.6694">
        <ele>67.2</ele>
        <time>2022-10-23T16:38:29+02:00</time>
      </trkpt>
      <trkpt lat="44.18746" lon="0.66932">
        <ele>66.3</ele>
        <time>2022-10-23T16:38:39+02:00</time>
      </trkpt>
      <trkpt lat="44.18732" lon="0.66929">
        <ele>65.5</ele>
        <time>2022-10-23T16:38:50+02:00</time>
      </trkpt>
      <trkpt lat="44.18719" lon="0.66921">
        <ele>64.8</ele>
        <time>2022-10-23T16:39:00+02:00</time>
      </trkpt>
      <trkpt lat="44.18705" lon="0.66916">
        <ele>63.7</ele>
        <time>2022-10-23T16:39:11+02:00</time>
      </trkpt>
      <trkpt lat="44.18693" lon="0.66909">
        <ele>62.7</ele>
        <time>2022-10-23T16:39:22+02:00</time>
      </trkpt>
      <trkpt lat="44.18679" lon="0.66906">
        <ele>62.3</ele>
        <time>2022-10-23T16:39:32+02:00</time>
      </trkpt>
      <trkpt lat="44.18665" lon="0.66902">
        <ele>62</ele>
        <time>2022-10-23T16:39:43+02:00</time>
      </trkpt>
      <trkpt lat="44.18652" lon="0.66897">
        <ele>61.5</ele>
        <time>2022-10-23T16:39:55+02:00</time>
      </trkpt>
      <trkpt lat="44.18641" lon="0.66887">
        <ele>61.1</ele>
        <time>2022-10-23T16:40:07+02:00</time>
      </trkpt>
    </trkseg>
  </trk>
</gpx>